Time;durP1;ratioP1;P1;durP2;ratioP2;P2;SDS_P1;SDS_P2;PMS_P1;PMS_P2;Temp;Humidity;BMP_temperature;BMP_pressure;BME280_temperature;BME280_humidity;BME280_pressure;Samples;Min_cycle;Max_cycle;Signal;HPM_P1;HPM_P2
2022/12/10 00:01:19;;;;;;;;;;;16.70;40.60;;;;;;8331555;28;19920;-44
2022/12/10 00:05:19;;;;;;;;;;;16.70;40.60;;;;;;8331637;28;19999;-44
2022/12/10 00:09:19;;;;;;;;;;;16.70;40.60;;;;;;8331569;28;20351;-45
2022/12/10 00:13:20;;;;;;;;;;;16.70;40.60;;;;;;8330915;28;19948;-45
2022/12/10 00:17:20;;;;;;;;;;;16.60;40.60;;;;;;8331622;28;19913;-44
2022/12/10 00:21:22;;;;;;;;;;;16.70;40.70;;;;;;8331287;28;20362;-44
2022/12/10 00:25:23;;;;;;;;;;;16.60;40.60;;;;;;8330648;28;20326;-44
2022/12/10 00:29:23;;;;;;;;;;;16.70;40.60;;;;;;8330772;28;19917;-44
2022/12/10 00:33:24;;;;;;;;;;;16.70;40.60;;;;;;8330867;28;19925;-44
2022/12/10 00:37:24;;;;;;;;;;;16.70;40.60;;;;;;8330269;28;19913;-45
2022/12/10 00:41:25;;;;;;;;;;;16.70;40.60;;;;;;8330811;28;19959;-44
2022/12/10 00:45:25;;;;;;;;;;;16.70;40.60;;;;;;8330337;28;20389;-45
2022/12/10 00:49:25;;;;;;;;;;;16.70;40.60;;;;;;8330025;28;20370;-45
2022/12/10 00:53:27;;;;;;;;;;;16.70;40.60;;;;;;8330608;28;19948;-45
2022/12/10 00:57:27;;;;;;;;;;;16.60;41.10;;;;;;8330555;28;19921;-45
2022/12/10 01:01:28;;;;;;;;;;;16.60;40.60;;;;;;8329782;28;19921;-44
2022/12/10 01:05:28;;;;;;;;;;;16.60;40.60;;;;;;8330251;28;19927;-45
2022/12/10 01:09:29;;;;;;;;;;;16.60;40.60;;;;;;8329980;28;19921;-45
2022/12/10 01:13:30;;;;;;;;;;;16.60;41.20;;;;;;8329324;28;20314;-44
2022/12/10 01:17:30;;;;;;;;;;;16.60;40.60;;;;;;8330150;28;19917;-44
2022/12/10 01:21:31;;;;;;;;;;;16.60;40.60;;;;;;8329990;28;19921;-44
2022/12/10 01:25:31;;;;;;;;;;;16.60;40.60;;;;;;8329327;28;19918;-45
2022/12/10 01:29:32;;;;;;;;;;;16.60;40.60;;;;;;8328728;28;19921;-45
2022/12/10 01:33:32;;;;;;;;;;;16.60;40.60;;;;;;8329698;28;19929;-45
2022/12/10 01:37:33;;;;;;;;;;;16.60;40.60;;;;;;8329430;28;19923;-45
2022/12/10 01:41:35;;;;;;;;;;;16.60;40.60;;;;;;8329494;28;19917;-46
2022/12/10 01:45:35;;;;;;;;;;;16.60;40.60;;;;;;8329552;28;20374;-45
2022/12/10 01:49:37;;;;;;;;;;;16.60;40.60;;;;;;8328959;28;19917;-46
2022/12/10 01:53:37;;;;;;;;;;;16.60;40.60;;;;;;8329169;28;20017;-46
2022/12/10 01:57:38;;;;;;;;;;;16.60;40.60;;;;;;8329665;28;19913;-45
2022/12/10 02:01:41;;;;;;;;;;;16.60;40.60;;;;;;8328995;28;19925;-45
2022/12/10 02:05:44;;;;;;;;;;;16.60;40.60;;;;;;8329151;28;19917;-44
2022/12/10 02:09:50;;;;;;;;;;;16.60;40.60;;;;;;8327905;28;19921;-43
2022/12/10 02:14:00;;;;;;;;;;;16.60;40.60;;;;;;8328957;28;19926;-44
2022/12/10 02:18:06;;;;;;;;;;;16.60;40.60;;;;;;8332846;28;19917;-45
2022/12/10 02:22:08;;;;;;;;;;;16.60;40.60;;;;;;8334615;28;20362;-45
2022/12/10 02:26:08;;;;;;;;;;;16.60;40.60;;;;;;8334951;28;19917;-45
2022/12/10 02:30:09;;;;;;;;;;;16.60;40.60;;;;;;8334661;28;19917;-46
2022/12/10 02:34:10;;;;;;;;;;;16.60;40.60;;;;;;8334187;28;20401;-44
2022/12/10 02:38:13;;;;;;;;;;;16.60;40.60;;;;;;8334247;28;20378;-44
2022/12/10 02:42:15;;;;;;;;;;;16.60;40.60;;;;;;8334294;28;19914;-44
2022/12/10 02:46:15;;;;;;;;;;;16.60;40.60;;;;;;8333630;28;19917;-45
2022/12/10 02:50:18;;;;;;;;;;;16.60;40.60;;;;;;8334187;28;19918;-46
2022/12/10 02:54:33;;;;;;;;;;;16.60;40.60;;;;;;8333853;28;20012;-44
2022/12/10 02:58:40;;;;;;;;;;;16.60;40.60;;;;;;8333221;28;20417;-44
2022/12/10 03:02:46;;;;;;;;;;;16.60;40.60;;;;;;8333929;28;19913;-45
2022/12/10 03:06:51;;;;;;;;;;;16.60;40.60;;;;;;8333296;28;19921;-45
2022/12/10 03:10:56;;;;;;;;;;;16.60;40.60;;;;;;8333182;28;19921;-45
2022/12/10 03:14:59;;;;;;;;;;;16.60;40.60;;;;;;8333878;28;19922;-45
2022/12/10 03:19:01;;;;;;;;;;;16.60;40.60;;;;;;8332907;28;19918;-45
2022/12/10 03:23:02;;;;;;;;;;;16.60;40.60;;;;;;8333495;28;19944;-45
2022/12/10 03:27:04;;;;;;;;;;;16.60;40.60;;;;;;8332545;28;19940;-45
2022/12/10 03:31:06;;;;;;;;;;;16.60;40.60;;;;;;8331715;28;19925;-45
2022/12/10 03:35:07;;;;;;;;;;;16.60;40.60;;;;;;8332338;28;19925;-45
2022/12/10 03:39:07;;;;;;;;;;;16.60;40.60;;;;;;8332558;28;19920;-45
2022/12/10 03:43:08;;;;;;;;;;;16.60;40.60;;;;;;8332802;28;19917;-45
2022/12/10 03:47:10;;;;;;;;;;;16.60;40.60;;;;;;8332450;28;19917;-45
2022/12/10 03:51:11;;;;;;;;;;;16.60;40.60;;;;;;8332012;28;19921;-45
2022/12/10 03:55:11;;;;;;;;;;;16.60;40.60;;;;;;8331210;28;20310;-46
2022/12/10 03:59:12;;;;;;;;;;;16.60;40.60;;;;;;8331734;28;19913;-45
2022/12/10 04:03:12;;;;;;;;;;;16.60;40.60;;;;;;8331966;28;19917;-44
2022/12/10 04:07:13;;;;;;;;;;;16.60;40.60;;;;;;8330709;28;19918;-45
2022/12/10 04:11:14;;;;;;;;;;;16.60;40.60;;;;;;8331612;28;19917;-47
2022/12/10 04:19:34;;;;;;;;;;;16.60;40.60;;;;;;8330715;28;20367;-45
2022/12/10 04:27:53;;;;;;;;;;;16.60;40.60;;;;;;8332992;28;19978;-46
2022/12/10 04:31:54;;;;;;;;;;;16.60;40.60;;;;;;8330698;28;19917;-45
2022/12/10 04:35:54;;;;;;;;;;;16.70;40.60;;;;;;8330761;28;20290;-44
2022/12/10 04:39:55;;;;;;;;;;;16.70;40.60;;;;;;8329644;28;19921;-44
2022/12/10 04:43:55;;;;;;;;;;;16.70;40.60;;;;;;8330744;28;20379;-45
2022/12/10 04:47:55;;;;;;;;;;;16.70;40.50;;;;;;8330576;28;19929;-45
2022/12/10 04:51:56;;;;;;;;;;;16.80;40.60;;;;;;8329848;28;20371;-45
2022/12/10 04:55:56;;;;;;;;;;;16.80;40.60;;;;;;8330385;28;19932;-45
2022/12/10 04:59:57;;;;;;;;;;;16.80;40.50;;;;;;8330354;28;19984;-44
2022/12/10 05:03:58;;;;;;;;;;;16.80;40.40;;;;;;8329885;28;20439;-44
2022/12/10 05:07:58;;;;;;;;;;;16.80;40.40;;;;;;8329164;28;19924;-45
2022/12/10 05:11:59;;;;;;;;;;;16.80;40.30;;;;;;8329941;28;19980;-45
2022/12/10 05:16:02;;;;;;;;;;;16.80;40.30;;;;;;8329308;28;19951;-44
2022/12/10 05:20:03;;;;;;;;;;;16.80;40.30;;;;;;8329710;28;19921;-44
2022/12/10 05:24:04;;;;;;;;;;;16.80;40.40;;;;;;8330336;28;19972;-45
2022/12/10 05:28:04;;;;;;;;;;;16.70;40.40;;;;;;8329309;28;20270;-46
2022/12/10 05:32:05;;;;;;;;;;;16.80;40.50;;;;;;8329616;28;19917;-45
2022/12/10 05:36:05;;;;;;;;;;;16.80;40.50;;;;;;8329379;28;20013;-46
2022/12/10 05:40:06;;;;;;;;;;;16.80;40.50;;;;;;8329046;28;20002;-46
2022/12/10 05:44:07;;;;;;;;;;;16.80;40.50;;;;;;8330069;28;19923;-47
2022/12/10 05:48:09;;;;;;;;;;;16.70;40.50;;;;;;8329619;28;20429;-44
2022/12/10 05:52:09;;;;;;;;;;;16.70;40.50;;;;;;8331326;28;19923;-44
2022/12/10 05:56:18;;;;;;;;;;;16.70;40.50;;;;;;8335549;28;19929;-45
2022/12/10 06:00:18;;;;;;;;;;;16.70;40.50;;;;;;8335464;28;19945;-44
2022/12/10 06:04:19;;;;;;;;;;;16.70;40.50;;;;;;8335217;28;20286;-44
2022/12/10 06:08:19;;;;;;;;;;;16.70;40.50;;;;;;8335217;28;19964;-44
2022/12/10 06:12:19;;;;;;;;;;;16.70;40.50;;;;;;8335760;28;19925;-44
2022/12/10 06:16:20;;;;;;;;;;;16.60;40.50;;;;;;8334322;28;19929;-44
2022/12/10 06:20:21;;;;;;;;;;;16.70;40.60;;;;;;8334724;28;19917;-45
2022/12/10 06:24:21;;;;;;;;;;;16.70;40.60;;;;;;8335098;28;19921;-45
2022/12/10 06:28:22;;;;;;;;;;;16.70;40.60;;;;;;8333905;28;20008;-44
2022/12/10 06:32:22;;;;;;;;;;;16.70;40.50;;;;;;8334266;28;19924;-45
2022/12/10 06:36:23;;;;;;;;;;;16.80;40.50;;;;;;8334338;28;19972;-44
2022/12/10 06:40:23;;;;;;;;;;;16.80;40.50;;;;;;8333810;28;19928;-44
2022/12/10 06:44:23;;;;;;;;;;;16.80;40.50;;;;;;8334260;28;19921;-45
2022/12/10 06:48:24;;;;;;;;;;;16.80;40.50;;;;;;8334108;28;20123;-45
2022/12/10 06:52:24;;;;;;;;;;;16.90;40.40;;;;;;8333468;28;19917;-45
2022/12/10 06:56:25;;;;;;;;;;;16.90;40.30;;;;;;8333804;28;19932;-45
2022/12/10 07:00:26;;;;;;;;;;;16.90;40.30;;;;;;8333646;28;19917;-45
2022/12/10 07:04:26;;;;;;;;;;;16.80;40.30;;;;;;8332970;28;19913;-45
2022/12/10 07:08:27;;;;;;;;;;;16.80;40.30;;;;;;8333143;28;19933;-45
2022/12/10 07:12:27;;;;;;;;;;;16.80;40.40;;;;;;8333307;28;19917;-48
2022/12/10 07:16:29;;;;;;;;;;;16.80;40.40;;;;;;8332599;28;20464;-45
2022/12/10 07:20:29;;;;;;;;;;;16.80;40.40;;;;;;8333256;28;19927;-47
2022/12/10 07:24:29;;;;;;;;;;;16.80;40.40;;;;;;8333090;28;19924;-45
2022/12/10 07:28:30;;;;;;;;;;;16.80;40.40;;;;;;8332179;28;19960;-44
2022/12/10 07:32:30;;;;;;;;;;;16.80;40.40;;;;;;8332613;28;20378;-44
2022/12/10 07:36:31;;;;;;;;;;;16.80;40.50;;;;;;8332237;28;19979;-44
2022/12/10 07:40:31;;;;;;;;;;;16.70;40.40;;;;;;8331656;28;20023;-44
2022/12/10 07:44:32;;;;;;;;;;;16.70;40.50;;;;;;8332420;28;19920;-45
2022/12/10 07:48:35;;;;;;;;;;;16.70;40.40;;;;;;8332034;28;19932;-48
2022/12/10 07:52:36;;;;;;;;;;;16.70;40.50;;;;;;8331343;28;19917;-46
2022/12/10 07:56:36;;;;;;;;;;;16.70;40.40;;;;;;8331925;28;20274;-48
2022/12/10 08:00:36;;;;;;;;;;;16.70;40.50;;;;;;8331790;28;20438;-45
2022/12/10 08:04:37;;;;;;;;;;;16.70;40.50;;;;;;8331369;28;19972;-45
2022/12/10 08:08:38;;;;;;;;;;;16.60;40.50;;;;;;8330234;28;19921;-45
2022/12/10 08:12:38;;;;;;;;;;;16.60;40.50;;;;;;8331209;28;19917;-45
2022/12/10 08:16:39;;;;;;;;;;;16.70;40.60;;;;;;8329970;28;20286;-46
2022/12/10 08:20:39;;;;;;;;;;;16.70;40.60;;;;;;8331129;28;20425;-45
2022/12/10 08:24:39;;;;;;;;;;;16.70;40.50;;;;;;8331228;28;20006;-49
2022/12/10 08:28:40;;;;;;;;;;;16.80;40.50;;;;;;8330326;28;19975;-46
2022/12/10 08:32:40;;;;;;;;;;;16.80;40.50;;;;;;8330580;28;20050;-47
2022/12/10 08:36:41;;;;;;;;;;;16.80;40.40;;;;;;8330565;28;20013;-46
2022/12/10 08:40:42;;;;;;;;;;;16.80;40.30;;;;;;8330047;28;19955;-49
2022/12/10 08:44:43;;;;;;;;;;;16.90;40.30;;;;;;8330583;28;19913;-46
2022/12/10 08:48:43;;;;;;;;;;;16.90;40.20;;;;;;8330422;28;19916;-47
2022/12/10 08:52:44;;;;;;;;;;;16.90;40.20;;;;;;8329640;28;19921;-46
2022/12/10 08:56:44;;;;;;;;;;;16.90;40.20;;;;;;8330222;28;19921;-45
2022/12/10 09:00:45;;;;;;;;;;;16.80;40.20;;;;;;8329859;28;19913;-44
2022/12/10 09:04:46;;;;;;;;;;;16.80;40.20;;;;;;8330291;28;19959;-45
2022/12/10 09:08:46;;;;;;;;;;;16.80;40.30;;;;;;8330012;28;19921;-44
2022/12/10 09:12:47;;;;;;;;;;;16.80;40.30;;;;;;8329384;28;19917;-45
2022/12/10 09:16:47;;;;;;;;;;;16.80;40.30;;;;;;8329778;28;19917;-49
2022/12/10 09:20:48;;;;;;;;;;;16.80;40.40;;;;;;8329968;28;19919;-46
2022/12/10 09:24:48;;;;;;;;;;;16.80;40.40;;;;;;8329521;28;20365;-46
2022/12/10 09:28:49;;;;;;;;;;;16.80;40.40;;;;;;8336089;28;19925;-45
2022/12/10 09:32:49;;;;;;;;;;;16.80;40.50;;;;;;8336333;28;19917;-45
2022/12/10 09:36:50;;;;;;;;;;;16.80;40.50;;;;;;8335750;28;19921;-46
2022/12/10 09:41:00;;;;;;;;;;;16.80;40.50;;;;;;8336494;28;19917;-46
2022/12/10 09:45:19;;;;;;;;;;;16.70;40.40;;;;;;8336251;28;19921;-45
2022/12/10 09:49:20;;;;;;;;;;;16.70;40.40;;;;;;8335518;28;19921;-45
2022/12/10 09:53:21;;;;;;;;;;;16.60;40.40;;;;;;8335515;28;20444;-45
2022/12/10 09:57:31;;;;;;;;;;;16.70;40.40;;;;;;8335486;28;20366;-46
2022/12/10 10:01:32;;;;;;;;;;;16.70;40.50;;;;;;8335135;28;19917;-48
2022/12/10 10:05:35;;;;;;;;;;;16.70;40.50;;;;;;8335691;28;20293;-45
2022/12/10 10:09:38;;;;;;;;;;;16.60;40.50;;;;;;8335405;28;19921;-46
2022/12/10 10:13:44;;;;;;;;;;;16.60;40.50;;;;;;8334196;28;19932;-48
2022/12/10 10:17:46;;;;;;;;;;;16.70;40.60;;;;;;8335120;28;19952;-45
2022/12/10 10:21:48;;;;;;;;;;;16.70;40.50;;;;;;8334610;28;19947;-45
2022/12/10 10:25:49;;;;;;;;;;;16.80;40.60;;;;;;8334745;28;19913;-49
2022/12/10 10:29:51;;;;;;;;;;;16.80;40.40;;;;;;8334902;28;19999;-46
2022/12/10 10:34:02;;;;;;;;;;;16.80;40.30;;;;;;8334070;28;20378;-48
2022/12/10 10:38:06;;;;;;;;;;;16.90;40.30;;;;;;8333414;28;19917;-44
2022/12/10 10:42:08;;;;;;;;;;;16.90;40.20;;;;;;8334608;28;19964;-46
2022/12/10 10:46:16;;;;;;;;;;;16.90;40.20;;;;;;8332949;28;19914;-45
2022/12/10 10:50:24;;;;;;;;;;;16.90;40.20;;;;;;8332707;28;19917;-45
2022/12/10 10:54:32;;;;;;;;;;;16.90;40.20;;;;;;8334017;28;20301;-45
2022/12/10 10:58:32;;;;;;;;;;;16.90;40.20;;;;;;8333167;28;19925;-45
2022/12/10 11:02:35;;;;;;;;;;;16.90;40.20;;;;;;8333599;28;19925;-45
2022/12/10 11:06:35;;;;;;;;;;;16.90;40.20;;;;;;8332306;28;20004;-44
2022/12/10 11:10:37;;;;;;;;;;;16.80;40.30;;;;;;8332831;28;20420;-47
2022/12/10 11:14:41;;;;;;;;;;;16.90;40.40;;;;;;8333395;28;20298;-46
2022/12/10 11:18:50;;;;;;;;;;;16.90;40.30;;;;;;8332934;28;19975;-46
2022/12/10 11:23:01;;;;;;;;;;;16.90;40.30;;;;;;8332931;28;20378;-45
2022/12/10 11:27:13;;;;;;;;;;;16.90;40.20;;;;;;8332789;28;19983;-46
2022/12/10 11:31:26;;;;;;;;;;;16.90;40.20;;;;;;8332585;28;20366;-46
2022/12/10 11:35:42;;;;;;;;;;;16.90;40.70;;;;;;8332436;28;20414;-46
2022/12/10 11:40:02;;;;;;;;;;;16.90;40.20;;;;;;8332627;28;19913;-47
2022/12/10 11:44:15;;;;;;;;;;;16.80;40.20;;;;;;8332160;28;19918;-46
2022/12/10 11:48:28;;;;;;;;;;;16.80;40.30;;;;;;8331526;28;19959;-48
2022/12/10 11:52:39;;;;;;;;;;;16.80;40.30;;;;;;8331483;28;19917;-49
2022/12/10 11:56:42;;;;;;;;;;;16.80;40.30;;;;;;8332059;28;19921;-46
2022/12/10 12:00:51;;;;;;;;;;;16.80;40.30;;;;;;8331744;28;20416;-45
2022/12/10 12:04:51;;;;;;;;;;;16.80;40.30;;;;;;8331285;28;19928;-44
2022/12/10 12:08:57;;;;;;;;;;;16.80;40.40;;;;;;8331522;28;19921;-44
2022/12/10 12:13:14;;;;;;;;;;;16.80;40.40;;;;;;8424983;27;19950;-45
2022/12/10 12:17:23;;;;;;;;;;;16.80;40.40;;;;;;8425237;28;19999;-45
2022/12/10 12:21:24;;;;;;;;;;;16.80;40.30;;;;;;8425378;28;20301;-45
2022/12/10 12:25:30;;;;;;;;;;;16.70;40.30;;;;;;8424512;28;19951;-45
2022/12/10 12:29:36;;;;;;;;;;;16.70;40.40;;;;;;8424984;28;20322;-43
2022/12/10 12:33:49;;;;;;;;;;;16.70;40.40;;;;;;8424649;28;19936;-45
2022/12/10 12:37:55;;;;;;;;;;;16.70;40.40;;;;;;8424375;28;19916;-45
2022/12/10 12:42:14;;;;;;;;;;;16.70;40.40;;;;;;8424654;28;19947;-45
2022/12/10 12:46:18;;;;;;;;;;;16.70;41.00;;;;;;8424165;28;20022;-46
2022/12/10 12:50:32;;;;;;;;;;;16.70;40.40;;;;;;8424080;28;20023;-45
2022/12/10 12:54:33;;;;;;;;;;;16.70;40.50;;;;;;8424143;28;19924;-45
2022/12/10 12:58:33;;;;;;;;;;;16.80;40.50;;;;;;8423538;28;20369;-45
2022/12/10 13:02:53;;;;;;;;;;;16.80;40.50;;;;;;8423975;28;20007;-45
2022/12/10 13:07:12;;;;;;;;;;;16.80;40.40;;;;;;8407925;28;19916;-45
2022/12/10 13:11:27;;;;;;;;;;;16.90;40.40;;;;;;8408118;28;19977;-45
2022/12/10 13:15:36;;;;;;;;;;;16.90;40.20;;;;;;8400577;28;19952;-45
2022/12/10 13:19:36;;;;;;;;;;;16.90;40.20;;;;;;8414426;28;19923;-45
2022/12/10 13:23:55;;;;;;;;;;;16.90;40.20;;;;;;8387529;28;19913;-45
2022/12/10 13:27:57;;;;;;;;;;;16.90;40.10;;;;;;8375132;28;19917;-44
2022/12/10 13:32:02;;;;;;;;;;;16.90;40.20;;;;;;8390733;28;19921;-45
2022/12/10 13:36:03;;;;;;;;;;;16.90;40.20;;;;;;8386354;28;19924;-45
2022/12/10 13:40:07;;;;;;;;;;;16.90;40.20;;;;;;8374893;28;20027;-44
2022/12/10 13:44:43;;;;;;;;;;;16.90;40.20;;;;;;8388308;28;19924;-45
2022/12/10 13:48:44;;;;;;;;;;;16.80;40.20;;;;;;8291874;28;19924;-45
2022/12/10 13:52:56;;;;;;;;;;;16.80;40.30;;;;;;8390922;28;20293;-44
2022/12/10 13:57:12;;;;;;;;;;;16.80;40.30;;;;;;8385122;28;20396;-45
2022/12/10 14:01:19;;;;;;;;;;;16.80;40.40;;;;;;8374213;28;19917;-45
2022/12/10 14:05:33;;;;;;;;;;;16.80;40.40;;;;;;8381607;28;19945;-45
2022/12/10 14:09:37;;;;;;;;;;;16.80;40.40;;;;;;8371472;28;19928;-45
2022/12/10 14:13:40;;;;;;;;;;;16.80;40.40;;;;;;8373806;28;19943;-46
2022/12/10 14:17:42;;;;;;;;;;;16.80;40.40;;;;;;8383338;28;19944;-46
2022/12/10 14:21:43;;;;;;;;;;;16.70;40.40;;;;;;8390344;28;19917;-46
2022/12/10 14:25:45;;;;;;;;;;;16.70;40.40;;;;;;8373604;28;20288;-47
2022/12/10 14:29:47;;;;;;;;;;;16.70;40.40;;;;;;8382035;28;19932;-46
2022/12/10 14:33:48;;;;;;;;;;;16.70;40.30;;;;;;8389110;28;20472;-46
2022/12/10 14:37:49;;;;;;;;;;;16.70;40.40;;;;;;8374682;28;19913;-46
2022/12/10 14:41:50;;;;;;;;;;;16.70;40.40;;;;;;8381091;28;19924;-47
2022/12/10 14:45:56;;;;;;;;;;;16.70;40.40;;;;;;8389388;28;19962;-46
2022/12/10 14:49:56;;;;;;;;;;;16.70;40.40;;;;;;8374695;28;19932;-46
2022/12/10 14:53:57;;;;;;;;;;;16.80;40.50;;;;;;8379578;28;20059;-46
2022/12/10 14:57:59;;;;;;;;;;;16.80;40.50;;;;;;8389213;28;19913;-46
2022/12/10 15:02:01;;;;;;;;;;;16.80;40.40;;;;;;8374900;28;19955;-46
2022/12/10 15:06:07;;;;;;;;;;;16.90;40.30;;;;;;8378505;28;19921;-45
2022/12/10 15:10:13;;;;;;;;;;;16.90;40.20;;;;;;8388609;28;20384;-46
2022/12/10 15:14:17;;;;;;;;;;;16.90;40.20;;;;;;8376498;28;19973;-46
2022/12/10 15:18:42;;;;;;;;;;;16.90;40.20;;;;;;8375994;28;19923;-45
2022/12/10 15:22:42;;;;;;;;;;;16.90;40.20;;;;;;8362516;28;19916;-45
2022/12/10 15:26:45;;;;;;;;;;;16.90;40.20;;;;;;8396782;28;19916;-45
2022/12/10 15:30:50;;;;;;;;;;;16.90;40.20;;;;;;8371457;28;19921;-45
2022/12/10 15:34:55;;;;;;;;;;;16.90;40.20;;;;;;8388148;28;19924;-45
2022/12/10 15:38:55;;;;;;;;;;;16.80;40.20;;;;;;8381362;28;19912;-44
2022/12/10 15:43:10;;;;;;;;;;;16.80;40.30;;;;;;8371218;28;19924;-47
2022/12/10 15:47:18;;;;;;;;;;;16.80;40.30;;;;;;8384367;28;20259;-45
2022/12/10 15:51:18;;;;;;;;;;;16.80;40.30;;;;;;8384354;28;20059;-46
2022/12/10 15:55:19;;;;;;;;;;;16.80;40.30;;;;;;8370981;28;20320;-46
2022/12/10 15:59:19;;;;;;;;;;;16.80;40.40;;;;;;8383394;28;19919;-46
2022/12/10 16:03:20;;;;;;;;;;;16.80;40.30;;;;;;8384607;28;19916;-46
2022/12/10 16:07:20;;;;;;;;;;;16.80;40.50;;;;;;8370641;28;19920;-46
2022/12/10 16:11:21;;;;;;;;;;;16.70;40.30;;;;;;8382779;28;19951;-44
2022/12/10 16:15:24;;;;;;;;;;;16.70;40.40;;;;;;8384447;28;20011;-45
2022/12/10 16:19:25;;;;;;;;;;;16.70;40.40;;;;;;8370690;28;19916;-43
2022/12/10 16:23:25;;;;;;;;;;;16.70;40.40;;;;;;8382255;28;20385;-44
2022/12/10 16:27:26;;;;;;;;;;;16.70;40.40;;;;;;8384722;28;19917;-44
2022/12/10 16:31:26;;;;;;;;;;;16.70;40.40;;;;;;8370662;28;19963;-46
2022/12/10 16:35:27;;;;;;;;;;;16.70;40.50;;;;;;8381328;28;19924;-46
2022/12/10 16:39:28;;;;;;;;;;;16.80;40.50;;;;;;8384931;28;19913;-45
2022/12/10 16:43:30;;;;;;;;;;;16.80;40.50;;;;;;8370410;28;19974;-46
2022/12/10 16:47:30;;;;;;;;;;;16.80;40.50;;;;;;8380775;28;19917;-44
2022/12/10 16:51:32;;;;;;;;;;;16.90;40.40;;;;;;8385260;28;19920;-45
2022/12/10 16:55:33;;;;;;;;;;;16.90;40.30;;;;;;8369987;28;20383;-45
2022/12/10 16:59:33;;;;;;;;;;;16.90;40.20;;;;;;8385736;28;20254;-46
2022/12/10 17:03:34;;;;;;;;;;;16.90;40.20;;;;;;8391839;28;19917;-47
2022/12/10 17:07:35;;;;;;;;;;;16.90;40.20;;;;;;8375372;28;19916;-45
2022/12/10 17:11:44;;;;;;;;;;;16.90;40.20;;;;;;8385852;28;20270;-45
2022/12/10 17:15:44;;;;;;;;;;;16.90;40.20;;;;;;8393009;28;20365;-42
2022/12/10 17:19:45;;;;;;;;;;;16.90;40.20;;;;;;8376868;28;19919;-45
2022/12/10 17:23:46;;;;;;;;;;;16.90;40.20;;;;;;8384259;28;19924;-45
2022/12/10 17:27:46;;;;;;;;;;;16.90;40.30;;;;;;8391833;28;20433;-44
2022/12/10 17:31:47;;;;;;;;;;;16.90;40.30;;;;;;8375929;28;19928;-44
2022/12/10 17:35:49;;;;;;;;;;;16.80;40.30;;;;;;8383197;28;20008;-45
2022/12/10 17:39:49;;;;;;;;;;;16.80;40.30;;;;;;8391338;28;19917;-47
2022/12/10 17:43:50;;;;;;;;;;;16.80;40.40;;;;;;8376105;28;19965;-45
2022/12/10 17:47:50;;;;;;;;;;;16.80;40.40;;;;;;8382613;28;19917;-45
2022/12/10 17:51:52;;;;;;;;;;;16.80;41.00;;;;;;8390922;28;19954;-46
2022/12/10 17:55:55;;;;;;;;;;;16.80;40.40;;;;;;8376102;28;20373;-45
2022/12/10 17:59:55;;;;;;;;;;;16.80;40.40;;;;;;8381721;28;19913;-45
2022/12/10 18:03:56;;;;;;;;;;;16.80;40.40;;;;;;8391251;28;19920;-45
2022/12/10 18:07:56;;;;;;;;;;;16.80;40.40;;;;;;8376012;28;19921;-45
2022/12/10 18:11:57;;;;;;;;;;;16.70;40.40;;;;;;8381076;28;19931;-44
2022/12/10 18:15:57;;;;;;;;;;;16.70;40.40;;;;;;8390366;28;19919;-45
2022/12/10 18:19:58;;;;;;;;;;;16.70;40.40;;;;;;8375986;28;19913;-45
2022/12/10 18:23:59;;;;;;;;;;;16.70;40.40;;;;;;8380929;28;20271;-46
2022/12/10 18:28:02;;;;;;;;;;;16.70;40.50;;;;;;8390061;28;19944;-45
2022/12/10 18:32:02;;;;;;;;;;;16.80;40.60;;;;;;8376049;28;19932;-46
2022/12/10 18:36:03;;;;;;;;;;;16.80;40.40;;;;;;8379554;28;19916;-46
2022/12/10 18:40:05;;;;;;;;;;;16.80;40.40;;;;;;8367704;28;19924;-47
2022/12/10 18:44:05;;;;;;;;;;;16.90;40.30;;;;;;8387370;28;19920;-45
2022/12/10 18:48:06;;;;;;;;;;;16.90;40.20;;;;;;8384553;28;19916;-45
2022/12/10 18:52:06;;;;;;;;;;;16.90;40.20;;;;;;8372630;28;19932;-45
2022/12/10 18:56:09;;;;;;;;;;;16.90;40.20;;;;;;8386497;28;19995;-46
2022/12/10 19:00:16;;;;;;;;;;;16.90;40.10;;;;;;8384629;28;19913;-46
2022/12/10 19:04:17;;;;;;;;;;;16.90;40.10;;;;;;8372669;28;19917;-48
2022/12/10 19:08:17;;;;;;;;;;;16.90;40.10;;;;;;8384556;28;19963;-46
2022/12/10 19:12:21;;;;;;;;;;;16.90;40.20;;;;;;8385236;28;19957;-46
2022/12/10 19:16:22;;;;;;;;;;;16.90;40.20;;;;;;8372097;28;19916;-46
2022/12/10 19:20:24;;;;;;;;;;;16.80;40.20;;;;;;8364976;28;19924;-47
2022/12/10 19:24:24;;;;;;;;;;;16.80;40.20;;;;;;8386035;28;19922;-45
2022/12/10 19:28:27;;;;;;;;;;;16.80;40.30;;;;;;8360961;28;19926;-51
2022/12/10 19:32:27;;;;;;;;;;;16.80;40.30;;;;;;8364401;28;20006;-48
2022/12/10 19:36:29;;;;;;;;;;;16.80;40.30;;;;;;8386256;28;19916;-45
2022/12/10 19:40:31;;;;;;;;;;;16.80;40.30;;;;;;8371344;28;20381;-46
2022/12/10 19:44:32;;;;;;;;;;;16.80;40.30;;;;;;8382290;28;19923;-47
2022/12/10 19:48:32;;;;;;;;;;;16.80;40.40;;;;;;8386251;28;20309;-47
2022/12/10 19:52:35;;;;;;;;;;;16.70;40.30;;;;;;8371015;28;19928;-47
2022/12/10 19:56:36;;;;;;;;;;;16.70;40.40;;;;;;8380757;28;19916;-44
2022/12/10 20:00:36;;;;;;;;;;;16.70;40.40;;;;;;8386669;28;19923;-45
2022/12/10 20:04:37;;;;;;;;;;;16.70;40.40;;;;;;8370957;28;19916;-47
2022/12/10 20:08:37;;;;;;;;;;;16.70;40.40;;;;;;8362517;28;20386;-43
2022/12/10 20:12:38;;;;;;;;;;;16.70;40.40;;;;;;8385588;28;19967;-44
2022/12/10 20:16:40;;;;;;;;;;;16.80;40.40;;;;;;8370469;28;19923;-45
2022/12/10 20:20:40;;;;;;;;;;;16.80;40.40;;;;;;8379845;28;19952;-45
2022/12/10 20:24:41;;;;;;;;;;;16.80;40.40;;;;;;8387342;28;20289;-46
2022/12/10 20:28:42;;;;;;;;;;;16.90;40.30;;;;;;8370260;28;20391;-45
2022/12/10 20:32:43;;;;;;;;;;;16.90;40.10;;;;;;8382423;28;19939;-45
2022/12/10 20:36:44;;;;;;;;;;;16.90;40.10;;;;;;8393999;28;20288;-46
2022/12/10 20:40:44;;;;;;;;;;;16.90;40.00;;;;;;8376879;28;19916;-46
2022/12/10 20:44:45;;;;;;;;;;;17.00;40.00;;;;;;8385787;28;19919;-44
2022/12/10 20:48:46;;;;;;;;;;;16.90;40.00;;;;;;8393323;28;19917;-43
2022/12/10 20:52:46;;;;;;;;;;;16.90;40.00;;;;;;8377105;28;19981;-45
2022/12/10 20:56:46;;;;;;;;;;;16.90;40.00;;;;;;8384869;28;19944;-44
2022/12/10 21:00:47;;;;;;;;;;;16.90;40.00;;;;;;8393010;28;19912;-45
2022/12/10 21:04:48;;;;;;;;;;;16.90;40.10;;;;;;8377602;28;19999;-45
2022/12/10 21:08:48;;;;;;;;;;;16.80;40.10;;;;;;8384598;28;19923;-45
2022/12/10 21:12:49;;;;;;;;;;;16.80;40.10;;;;;;8392469;28;19931;-45
2022/12/10 21:16:49;;;;;;;;;;;16.80;40.20;;;;;;8376801;28;19917;-45
2022/12/10 21:20:50;;;;;;;;;;;16.80;40.20;;;;;;8383713;28;20358;-45
2022/12/10 21:24:50;;;;;;;;;;;16.80;40.20;;;;;;8392216;28;19912;-45
2022/12/10 21:28:51;;;;;;;;;;;16.80;40.20;;;;;;8376981;28;19916;-44
2022/12/10 21:32:51;;;;;;;;;;;16.70;40.30;;;;;;8383249;28;19935;-45
2022/12/10 21:36:52;;;;;;;;;;;16.70;40.30;;;;;;8391764;28;19982;-45
2022/12/10 21:40:53;;;;;;;;;;;16.70;40.30;;;;;;8376471;28;19924;-45
2022/12/10 21:44:53;;;;;;;;;;;16.70;40.30;;;;;;8382420;28;19913;-45
2022/12/10 21:48:54;;;;;;;;;;;16.60;40.30;;;;;;8391596;28;19916;-45
2022/12/10 21:52:54;;;;;;;;;;;16.60;40.30;;;;;;8376495;28;20003;-44
2022/12/10 21:56:55;;;;;;;;;;;16.60;40.30;;;;;;8381942;28;19917;-45
2022/12/10 22:00:56;;;;;;;;;;;16.60;40.20;;;;;;8391110;28;19935;-44
2022/12/10 22:04:57;;;;;;;;;;;16.70;40.30;;;;;;8376822;28;19995;-45
2022/12/10 22:08:57;;;;;;;;;;;16.60;40.20;;;;;;8381350;28;19999;-44
2022/12/10 22:12:58;;;;;;;;;;;16.60;40.20;;;;;;8390792;28;19924;-46
2022/12/10 22:16:58;;;;;;;;;;;16.70;40.20;;;;;;8376610;28;19924;-44
2022/12/10 22:21:00;;;;;;;;;;;16.60;40.20;;;;;;8381035;28;20281;-44
2022/12/10 22:25:00;;;;;;;;;;;16.60;40.10;;;;;;8390340;28;20011;-45
2022/12/10 22:29:01;;;;;;;;;;;16.70;40.10;;;;;;8376403;28;19977;-45
2022/12/10 22:33:02;;;;;;;;;;;16.60;40.10;;;;;;8379792;28;20034;-45
2022/12/10 22:37:02;;;;;;;;;;;16.60;40.10;;;;;;8389904;28;20300;-45
2022/12/10 22:41:03;;;;;;;;;;;16.60;40.10;;;;;;8376448;28;19913;-45
2022/12/10 22:45:07;;;;;;;;;;;16.60;40.10;;;;;;8379417;28;19923;-45
2022/12/10 22:49:08;;;;;;;;;;;16.60;40.10;;;;;;8389301;28;20273;-45
2022/12/10 22:53:08;;;;;;;;;;;16.60;40.00;;;;;;8376745;28;19924;-45
2022/12/10 22:57:09;;;;;;;;;;;16.60;40.10;;;;;;8377349;28;19917;-44
2022/12/10 23:01:13;;;;;;;;;;;16.60;40.00;;;;;;8388488;28;19912;-46
2022/12/10 23:05:13;;;;;;;;;;;16.60;40.10;;;;;;8376924;28;19952;-45
2022/12/10 23:09:14;;;;;;;;;;;16.60;40.00;;;;;;8375727;28;19917;-45
2022/12/10 23:13:20;;;;;;;;;;;16.60;40.00;;;;;;8388569;28;19924;-45
2022/12/10 23:17:20;;;;;;;;;;;16.60;40.00;;;;;;8377647;28;19920;-45
2022/12/10 23:21:22;;;;;;;;;;;16.60;40.00;;;;;;8375907;28;19955;-44
2022/12/10 23:25:22;;;;;;;;;;;16.60;40.00;;;;;;8388382;28;19921;-45
2022/12/10 23:29:23;;;;;;;;;;;16.60;39.90;;;;;;8377731;28;20293;-45
2022/12/10 23:33:23;;;;;;;;;;;16.60;39.90;;;;;;8375115;28;20377;-45
2022/12/10 23:37:25;;;;;;;;;;;16.50;39.90;;;;;;8388076;28;19959;-46